createdAt,value
2022-10-04T00:01:11.475Z,74.37
2022-10-04T00:03:21.903Z,74.56
2022-10-04T00:05:25.477Z,74.33
2022-10-04T00:07:33.953Z,74.46
2022-10-04T00:10:01.122Z,74.33
2022-10-04T00:12:04.322Z,74.23
2022-10-04T00:14:14.061Z,74.63
2022-10-04T00:16:32.443Z,74.47
2022-10-04T00:18:45.068Z,74.24
2022-10-04T00:20:50.704Z,74.25
2022-10-04T00:23:23.430Z,74.27
2022-10-04T00:25:34.822Z,74.66
2022-10-04T00:27:38.555Z,74.32
2022-10-04T00:29:44.813Z,74.54
2022-10-04T00:32:21.514Z,74.78
2022-10-04T00:34:30.292Z,74.34
2022-10-04T00:36:47.545Z,74.34
2022-10-04T00:39:09.128Z,74.79
2022-10-04T00:41:13.449Z,74.75
2022-10-04T00:43:23.334Z,74.46
2022-10-04T00:45:40.760Z,74.19
2022-10-04T00:47:48.073Z,74.49
2022-10-04T00:49:56.165Z,74.99
2022-10-04T00:52:27.176Z,74.67
2022-10-04T00:54:41.412Z,74.87
2022-10-04T00:57:07.489Z,74.62
2022-10-04T00:59:39.673Z,75.06
2022-10-04T01:01:45.589Z,74.95
2022-10-04T01:03:47.963Z,75.24
2022-10-04T01:05:56.719Z,74.81
2022-10-04T01:08:17.945Z,74.50
2022-10-04T01:10:31.389Z,75.04
2022-10-04T01:12:44.973Z,74.92
2022-10-04T01:15:06.314Z,74.83
2022-10-04T01:17:09.021Z,74.84
2022-10-04T01:19:22.606Z,74.69
2022-10-04T01:21:31.487Z,74.73
2022-10-04T01:23:46.515Z,75.13
2022-10-04T01:25:51.306Z,74.58
2022-10-04T01:27:53.185Z,75.02
2022-10-04T01:29:54.894Z,74.83
2022-10-04T01:31:59.983Z,75.04
2022-10-04T01:34:02.637Z,74.51
2022-10-04T01:36:04.442Z,74.96
2022-10-04T01:38:07.592Z,74.86
2022-10-04T01:40:11.115Z,74.76
2022-10-04T01:42:18.768Z,74.92
2022-10-04T01:44:37.197Z,75.29
2022-10-04T01:46:41.183Z,74.89
2022-10-04T01:48:45.950Z,74.98
2022-10-04T01:51:13.133Z,75.97
2022-10-04T01:53:27.396Z,75.68
2022-10-04T01:55:37.682Z,76.04
2022-10-04T01:57:47.808Z,76.02
2022-10-04T02:00:09.462Z,76.51
2022-10-04T02:02:24.117Z,76.35
2022-10-04T02:04:32.712Z,76.35
2022-10-04T02:06:40.356Z,75.93
2022-10-04T02:08:49.599Z,75.85
2022-10-04T02:10:54.689Z,75.73
2022-10-04T02:12:57.996Z,75.25
2022-10-04T02:15:02.712Z,75.60
2022-10-04T02:17:10.622Z,76.20
2022-10-04T02:19:14.435Z,76.01
2022-10-04T02:21:17.696Z,75.72
2022-10-04T02:23:21.602Z,75.59
2022-10-04T02:25:23.392Z,76.44
2022-10-04T02:27:31.328Z,76.56
2022-10-04T02:29:33.494Z,76.43
2022-10-04T02:31:56.392Z,75.64
2022-10-04T02:34:00.330Z,76.00
2022-10-04T02:36:02.567Z,76.27
2022-10-04T02:38:14.853Z,75.93
2022-10-04T02:40:20.661Z,76.03
2022-10-04T02:42:36.108Z,75.97
2022-10-04T02:44:44.457Z,75.99
2022-10-04T02:46:51.902Z,76.02
2022-10-04T02:49:21.023Z,75.61
2022-10-04T02:51:36.247Z,75.73
2022-10-04T02:54:03.458Z,76.10
2022-10-04T02:56:05.970Z,75.83
2022-10-04T02:58:11.009Z,75.69
2022-10-04T03:00:12.663Z,75.70
2022-10-04T03:02:29.883Z,75.87
2022-10-04T03:04:37.918Z,75.95
2022-10-04T03:06:39.747Z,76.08
2022-10-04T03:08:48.862Z,76.02
2022-10-04T03:10:51.132Z,76.02
2022-10-04T03:12:53.706Z,76.21
2022-10-04T03:14:55.819Z,75.94
2022-10-04T03:17:01.812Z,76.14
2022-10-04T03:19:07.315Z,75.75
2022-10-04T03:21:12.915Z,75.74
2022-10-04T03:23:17.339Z,75.83
2022-10-04T03:25:23.951Z,76.26
2022-10-04T03:27:34.012Z,76.11
2022-10-04T03:29:40.715Z,76.10
2022-10-04T03:31:47.233Z,76.15
2022-10-04T03:33:50.203Z,75.83
2022-10-04T03:35:55.122Z,75.91
2022-10-04T03:37:59.144Z,75.70
2022-10-04T03:40:15.058Z,75.60
2022-10-04T03:42:46.069Z,75.92
2022-10-04T03:44:56.870Z,75.71
2022-10-04T03:46:59.564Z,75.69
2022-10-04T03:49:07.322Z,75.75
2022-10-04T03:51:16.330Z,76.07
2022-10-04T03:53:32.107Z,76.01
2022-10-04T03:55:43.348Z,76.14
2022-10-04T03:57:45.153Z,76.07
2022-10-04T03:59:48.131Z,75.93
2022-10-04T04:02:18.396Z,76.47
2022-10-04T04:04:31.196Z,76.47
2022-10-04T04:06:46.859Z,76.56
2022-10-04T04:09:02.256Z,76.23
2022-10-04T04:11:08.281Z,76.62
2022-10-04T04:13:24.211Z,76.66
2022-10-04T04:15:31.475Z,76.59
2022-10-04T04:17:52.462Z,76.23
2022-10-04T04:20:08.115Z,76.48
2022-10-04T04:22:16.865Z,76.46
2022-10-04T04:24:32.265Z,76.24
2022-10-04T04:26:35.153Z,76.58
2022-10-04T04:28:50.271Z,76.67
2022-10-04T04:30:57.655Z,76.57
2022-10-04T04:33:08.443Z,76.23
2022-10-04T04:35:21.594Z,76.20
2022-10-04T04:37:23.395Z,76.27
2022-10-04T04:39:34.359Z,75.98
2022-10-04T04:41:36.399Z,76.33
2022-10-04T04:43:43.723Z,76.55
2022-10-04T04:46:03.021Z,76.32
2022-10-04T04:48:15.503Z,75.93
2022-10-04T04:50:20.276Z,76.37
2022-10-04T04:52:27.085Z,76.38
2022-10-04T04:54:28.931Z,76.04
2022-10-04T04:56:31.481Z,75.71
2022-10-04T04:58:43.534Z,75.54
2022-10-04T05:00:54.511Z,75.13
2022-10-04T05:03:02.020Z,75.20
2022-10-04T05:05:22.476Z,74.77
2022-10-04T05:07:24.827Z,74.17
2022-10-04T05:09:35.798Z,74.20
2022-10-04T05:11:39.625Z,73.70
2022-10-04T05:13:47.485Z,72.76
2022-10-04T05:15:53.998Z,72.86
2022-10-04T05:17:55.761Z,72.71
2022-10-04T05:20:01.417Z,72.59
2022-10-04T05:22:09.819Z,72.19
2022-10-04T05:24:17.943Z,72.37
2022-10-04T05:26:27.946Z,72.19
2022-10-04T05:28:30.216Z,71.73
2022-10-04T05:30:31.957Z,71.72
2022-10-04T05:32:39.664Z,71.41
2022-10-04T05:34:48.793Z,71.73
2022-10-04T05:36:53.638Z,71.26
2022-10-04T05:39:06.153Z,70.90
2022-10-04T05:41:20.952Z,71.31
2022-10-04T05:43:44.721Z,71.30
2022-10-04T05:45:46.571Z,71.21
2022-10-04T05:47:51.348Z,71.41
2022-10-04T05:49:55.733Z,71.13
2022-10-04T05:52:02.503Z,71.09
2022-10-04T05:54:04.858Z,71.18
2022-10-04T05:56:18.455Z,71.00
2022-10-04T05:58:44.346Z,71.01
2022-10-04T06:00:55.477Z,70.68
2022-10-04T06:03:24.226Z,70.78
2022-10-04T06:05:55.575Z,70.35
2022-10-04T06:08:08.391Z,70.33
2022-10-04T06:10:40.959Z,70.37
2022-10-04T06:13:00.780Z,70.33
2022-10-04T06:15:27.319Z,70.47
2022-10-04T06:17:44.283Z,70.23
2022-10-04T06:20:11.559Z,70.42
2022-10-04T06:22:17.407Z,70.18
2022-10-04T06:24:27.117Z,70.27
2022-10-04T06:26:37.588Z,69.96
2022-10-04T06:29:06.446Z,70.31
2022-10-04T06:31:25.893Z,70.18
2022-10-04T06:34:06.225Z,70.29
2022-10-04T06:36:26.796Z,70.01
2022-10-04T06:39:13.311Z,69.41
2022-10-04T06:41:38.362Z,69.50
2022-10-04T06:43:46.223Z,69.30
2022-10-04T06:45:56.845Z,69.04
2022-10-04T06:48:36.998Z,69.19
2022-10-04T06:51:21.984Z,68.95
2022-10-04T06:54:08.678Z,68.46
2022-10-04T06:56:23.009Z,68.35
2022-10-04T06:58:43.349Z,68.57
2022-10-04T07:01:09.167Z,68.57
2022-10-04T07:03:17.492Z,68.48
2022-10-04T07:05:30.518Z,68.14
2022-10-04T07:07:36.320Z,67.78
2022-10-04T07:09:42.738Z,67.35
2022-10-04T07:12:08.629Z,67.16
2022-10-04T07:14:17.049Z,67.11
2022-10-04T07:16:28.032Z,66.78
2022-10-04T07:18:37.674Z,66.66
2022-10-04T07:20:40.230Z,66.55
2022-10-04T07:23:00.348Z,66.24
2022-10-04T07:25:05.543Z,66.33
2022-10-04T07:27:13.391Z,65.95
2022-10-04T07:29:22.703Z,65.98
2022-10-04T07:31:28.668Z,65.52
2022-10-04T07:33:35.872Z,65.42
2022-10-04T07:35:48.999Z,65.74
2022-10-04T07:38:00.367Z,65.38
2022-10-04T07:40:19.004Z,65.77
2022-10-04T07:42:26.562Z,65.25
2022-10-04T07:44:40.917Z,65.04
2022-10-04T07:46:42.557Z,64.89
2022-10-04T07:48:44.429Z,65.13
2022-10-04T07:51:05.338Z,64.73
2022-10-04T07:53:33.305Z,64.78
2022-10-04T07:55:52.289Z,64.24
2022-10-04T07:58:21.145Z,64.74
2022-10-04T08:00:27.680Z,64.36
2022-10-04T08:02:35.218Z,64.58
2022-10-04T08:04:37.563Z,64.50
2022-10-04T08:06:52.680Z,64.09
2022-10-04T08:09:11.918Z,64.32
2022-10-04T08:11:51.710Z,64.08
2022-10-04T08:14:11.228Z,63.86
2022-10-04T08:16:23.831Z,64.07
2022-10-04T08:18:25.473Z,63.50
2022-10-04T08:20:36.487Z,63.71
2022-10-04T08:23:03.866Z,62.99
2022-10-04T08:25:20.794Z,63.06
2022-10-04T08:28:08.646Z,63.15
2022-10-04T08:30:25.707Z,63.38
2022-10-04T08:32:39.554Z,62.66
2022-10-04T08:34:53.209Z,62.51
2022-10-04T08:37:16.701Z,62.46
2022-10-04T08:39:27.941Z,62.45
2022-10-04T08:41:44.880Z,62.10
2022-10-04T08:44:18.161Z,62.21
2022-10-04T08:46:46.812Z,61.99
2022-10-04T08:49:13.006Z,62.23
2022-10-04T08:51:52.467Z,62.58
2022-10-04T08:54:13.505Z,62.83
2022-10-04T08:56:48.397Z,63.10
2022-10-04T08:59:26.933Z,62.83
2022-10-04T09:02:00.183Z,62.66
2022-10-04T09:04:40.867Z,62.41
2022-10-04T09:06:48.307Z,62.25
2022-10-04T09:09:22.283Z,62.79
2022-10-04T09:11:41.577Z,62.23
2022-10-04T09:14:14.424Z,62.53
2022-10-04T09:16:33.230Z,62.17
2022-10-04T09:18:56.187Z,62.76
2022-10-04T09:21:14.308Z,62.73
2022-10-04T09:23:31.124Z,63.27
2022-10-04T09:25:58.942Z,63.17
2022-10-04T09:28:21.132Z,63.34
2022-10-04T09:30:40.403Z,63.22
2022-10-04T09:33:03.256Z,63.07
2022-10-04T09:35:31.594Z,63.23
2022-10-04T09:37:47.859Z,63.50
2022-10-04T09:40:18.188Z,63.92
2022-10-04T09:42:42.012Z,64.15
2022-10-04T09:44:57.570Z,64.02
2022-10-04T09:47:22.184Z,64.24
2022-10-04T09:50:00.780Z,64.34
2022-10-04T09:52:32.698Z,64.47
2022-10-04T09:55:11.516Z,64.28
2022-10-04T09:57:26.457Z,64.52
2022-10-04T09:59:46.011Z,64.66
2022-10-04T10:02:29.015Z,64.23
2022-10-04T10:05:00.144Z,64.23
2022-10-04T10:07:13.793Z,63.90
2022-10-04T10:09:47.853Z,63.75
2022-10-04T10:12:36.225Z,63.59
2022-10-04T10:15:13.489Z,63.28
2022-10-04T10:17:36.529Z,63.10
2022-10-04T10:20:16.829Z,63.52
2022-10-04T10:22:38.571Z,63.33
2022-10-04T10:24:54.832Z,63.36
2022-10-04T10:27:50.759Z,62.81
2022-10-04T10:30:25.896Z,62.72
2022-10-04T10:32:27.562Z,62.39
2022-10-04T10:34:58.295Z,62.40
2022-10-04T10:37:37.431Z,62.26
2022-10-04T10:39:47.265Z,62.05
2022-10-04T10:42:19.910Z,62.32
2022-10-04T10:45:05.025Z,62.02
2022-10-04T10:47:16.088Z,61.77
2022-10-04T10:49:44.969Z,61.27
2022-10-04T10:52:20.300Z,61.13
2022-10-04T10:54:37.495Z,61.28
2022-10-04T10:57:03.504Z,61.55
2022-10-04T10:59:20.761Z,61.50
2022-10-04T11:01:44.832Z,61.55
2022-10-04T11:04:04.797Z,61.85
2022-10-04T11:07:01.455Z,61.42
2022-10-04T11:09:34.295Z,61.68
2022-10-04T11:12:05.775Z,61.71
2022-10-04T11:14:25.633Z,61.96
2022-10-04T11:16:35.018Z,61.63
2022-10-04T11:19:08.054Z,61.95
2022-10-04T11:21:35.131Z,61.72
2022-10-04T11:24:13.867Z,61.63
2022-10-04T11:26:52.637Z,61.64
2022-10-04T11:29:20.687Z,61.51
2022-10-04T11:31:45.990Z,61.81
2022-10-04T11:33:56.300Z,61.87
2022-10-04T11:36:24.588Z,61.52
2022-10-04T11:38:53.896Z,61.06
2022-10-04T11:41:11.051Z,61.14
2022-10-04T11:43:42.769Z,61.15
2022-10-04T11:46:17.993Z,61.43
2022-10-04T11:48:47.650Z,60.74
2022-10-04T11:51:18.496Z,60.28
2022-10-04T11:53:39.607Z,59.79
2022-10-04T11:55:42.461Z,60.07
2022-10-04T11:58:02.932Z,60.10
2022-10-04T12:00:33.465Z,60.10
2022-10-04T12:03:05.065Z,60.35
2022-10-04T12:05:31.105Z,60.37
2022-10-04T12:07:50.789Z,60.29
2022-10-04T12:10:23.604Z,60.71
2022-10-04T12:12:57.686Z,60.54
2022-10-04T12:15:14.573Z,60.83
2022-10-04T12:17:38.574Z,60.97
2022-10-04T12:19:54.228Z,61.09
2022-10-04T12:22:33.463Z,60.88
2022-10-04T12:24:53.384Z,61.14
2022-10-04T12:27:13.291Z,61.01
2022-10-04T12:30:03.441Z,60.81
2022-10-04T12:32:20.145Z,60.88
2022-10-04T12:34:41.994Z,60.91
2022-10-04T12:37:17.058Z,61.10
2022-10-04T12:39:44.466Z,60.79
2022-10-04T12:41:52.134Z,61.24
2022-10-04T12:44:07.945Z,61.15
2022-10-04T12:46:30.634Z,61.41
2022-10-04T12:49:11.664Z,61.24
2022-10-04T12:51:19.131Z,61.60
2022-10-04T12:53:41.521Z,61.42
2022-10-04T12:56:04.721Z,61.62
2022-10-04T12:58:16.521Z,61.79
2022-10-04T13:00:23.032Z,61.96
2022-10-04T13:02:48.995Z,61.97
2022-10-04T13:04:55.337Z,61.81
2022-10-04T13:07:21.752Z,61.70
2022-10-04T13:09:55.306Z,61.76
2022-10-04T13:12:29.403Z,61.32
2022-10-04T13:14:40.159Z,61.55
2022-10-04T13:19:34.132Z,62.49
2022-10-04T13:22:06.832Z,62.30
2022-10-04T13:24:28.647Z,62.48
2022-10-04T13:26:36.175Z,62.24
2022-10-04T13:29:13.804Z,62.34
2022-10-04T13:31:34.824Z,62.37
2022-10-04T13:33:49.367Z,62.07
2022-10-04T13:36:11.709Z,62.52
2022-10-04T13:38:34.961Z,63.05
2022-10-04T13:40:42.878Z,63.23
2022-10-04T13:43:09.220Z,63.57
2022-10-04T13:45:36.356Z,64.87
2022-10-04T13:48:21.608Z,66.11
2022-10-04T13:50:38.739Z,66.20
2022-10-04T13:53:27.053Z,66.21
2022-10-04T13:55:53.093Z,66.21
2022-10-04T13:58:22.620Z,66.24
2022-10-04T14:00:54.915Z,66.38
2022-10-04T14:03:13.393Z,66.12
2022-10-04T14:05:50.260Z,65.94
2022-10-04T14:08:36.774Z,66.38
2022-10-04T14:11:16.859Z,66.62
2022-10-04T14:13:45.752Z,67.02
2022-10-04T14:16:05.785Z,67.01
2022-10-04T14:18:23.478Z,67.43
2022-10-04T14:20:33.549Z,67.73
2022-10-04T14:22:53.913Z,68.16
2022-10-04T14:25:31.044Z,67.47
2022-10-04T14:28:06.451Z,67.27
2022-10-04T14:30:12.727Z,67.46
2022-10-04T14:32:41.912Z,67.29
2022-10-04T14:34:59.695Z,67.54
2022-10-04T14:37:01.308Z,67.28
2022-10-04T14:39:59.466Z,66.96
2022-10-04T14:42:34.128Z,66.95
2022-10-04T14:45:00.001Z,67.29
2022-10-04T14:47:27.875Z,67.51
2022-10-04T14:50:00.242Z,67.66
2022-10-04T14:52:16.852Z,67.46
2022-10-04T14:54:52.585Z,67.10
2022-10-04T14:57:00.737Z,66.79
2022-10-04T14:59:32.970Z,66.42
2022-10-04T15:01:39.416Z,66.23
2022-10-04T15:04:22.118Z,66.56
2022-10-04T15:06:38.177Z,65.94
2022-10-04T15:09:17.757Z,66.15
2022-10-04T15:11:40.007Z,66.18
2022-10-04T15:13:55.693Z,66.15
2022-10-04T15:16:10.057Z,65.50
2022-10-04T15:19:04.279Z,65.39
2022-10-04T15:21:45.808Z,64.90
2022-10-04T15:24:10.807Z,65.22
2022-10-04T15:26:18.634Z,64.70
2022-10-04T15:29:06.226Z,64.40
2022-10-04T15:31:26.496Z,64.17
2022-10-04T15:33:28.282Z,63.96
2022-10-04T15:35:36.999Z,63.37
2022-10-04T15:37:50.001Z,63.73
2022-10-04T15:40:07.621Z,63.86
2022-10-04T15:42:21.466Z,64.04
2022-10-04T15:45:02.727Z,63.90
2022-10-04T15:47:07.444Z,63.87
2022-10-04T15:49:25.103Z,63.95
2022-10-04T15:51:48.750Z,64.08
2022-10-04T15:54:14.565Z,63.89
2022-10-04T15:56:40.934Z,64.02
2022-10-04T15:58:54.486Z,64.53
2022-10-04T16:01:41.339Z,64.42
2022-10-04T16:04:09.986Z,64.13
2022-10-04T16:06:36.323Z,64.18
2022-10-04T16:09:11.282Z,63.83
2022-10-04T16:11:38.033Z,63.45
2022-10-04T16:13:53.933Z,63.37
2022-10-04T16:16:17.724Z,63.21
2022-10-04T16:18:33.565Z,63.12
2022-10-04T16:20:56.263Z,62.66
2022-10-04T16:23:25.280Z,62.83
2022-10-04T16:25:38.209Z,63.05
2022-10-04T16:27:54.957Z,62.89
2022-10-04T16:30:26.102Z,62.62
2022-10-04T16:32:43.330Z,62.60
2022-10-04T16:34:53.501Z,62.37
2022-10-04T16:37:15.948Z,62.76
2022-10-04T16:40:00.591Z,62.68
2022-10-04T16:42:06.899Z,63.19
2022-10-04T16:44:39.941Z,63.24
2022-10-04T16:46:45.175Z,63.56
2022-10-04T16:49:21.658Z,63.39
2022-10-04T16:51:51.498Z,63.82
2022-10-04T16:54:05.293Z,63.35
2022-10-04T16:56:16.507Z,63.12
2022-10-04T16:58:27.202Z,63.24
2022-10-04T17:00:36.228Z,63.84
2022-10-04T17:02:49.159Z,63.54
2022-10-04T17:05:01.453Z,63.44
2022-10-04T17:07:36.349Z,63.40
2022-10-04T17:10:16.193Z,63.56
2022-10-04T17:12:23.737Z,63.49
2022-10-04T17:14:31.709Z,63.58
2022-10-04T17:16:40.010Z,63.27
2022-10-04T17:19:11.470Z,63.64
2022-10-04T17:21:29.153Z,63.73
2022-10-04T17:23:49.532Z,63.86
2022-10-04T17:26:05.178Z,63.93
2022-10-04T17:28:21.104Z,63.87
2022-10-04T17:30:30.299Z,64.01
2022-10-04T17:32:46.921Z,64.19
2022-10-04T17:35:12.323Z,64.17
2022-10-04T17:37:20.943Z,64.63
2022-10-04T17:39:33.926Z,64.40
2022-10-04T17:42:12.277Z,65.17
2022-10-04T17:44:35.869Z,65.00
2022-10-04T17:46:48.499Z,65.52
2022-10-04T17:49:17.480Z,65.81
2022-10-04T17:52:01.909Z,66.31
2022-10-04T17:54:37.121Z,66.21
2022-10-04T17:56:53.911Z,66.48
2022-10-04T17:59:12.826Z,66.29
2022-10-04T18:01:34.841Z,66.26
2022-10-04T18:04:15.075Z,66.28
2022-10-04T18:06:28.378Z,66.43
2022-10-04T18:08:39.185Z,66.40
2022-10-04T18:10:50.609Z,66.56
2022-10-04T18:13:01.110Z,67.08
2022-10-04T18:15:26.715Z,67.13
2022-10-04T18:17:35.784Z,66.88
2022-10-04T18:19:50.227Z,66.87
2022-10-04T18:21:54.324Z,66.75
2022-10-04T18:24:02.233Z,67.19
2022-10-04T18:26:18.256Z,66.89
2022-10-04T18:28:21.996Z,66.48
2022-10-04T18:30:24.330Z,66.70
2022-10-04T18:32:25.953Z,66.42
2022-10-04T18:34:29.871Z,66.63
2022-10-04T18:36:48.962Z,66.75
2022-10-04T18:39:19.109Z,66.54
2022-10-04T18:41:23.320Z,66.93
2022-10-04T18:43:40.441Z,66.93
2022-10-04T18:46:22.247Z,66.88
2022-10-04T18:48:37.523Z,66.93
2022-10-04T18:50:47.141Z,66.61
2022-10-04T18:52:58.332Z,67.21
2022-10-04T18:55:06.132Z,66.98
2022-10-04T18:57:24.201Z,66.83
2022-10-04T19:00:09.582Z,66.86
2022-10-04T19:02:38.962Z,66.98
2022-10-04T19:04:49.906Z,67.56
2022-10-04T19:06:54.855Z,67.31
2022-10-04T19:09:25.657Z,67.28
2022-10-04T19:11:59.651Z,67.26
2022-10-04T19:14:20.035Z,67.68
2022-10-04T19:16:21.750Z,68.21
2022-10-04T19:18:42.150Z,67.91
2022-10-04T19:20:52.122Z,68.11
2022-10-04T19:23:01.331Z,68.14
2022-10-04T19:25:06.267Z,67.89
2022-10-04T19:27:31.923Z,68.23
2022-10-04T19:29:39.504Z,68.04
2022-10-04T19:32:00.579Z,68.01
2022-10-04T19:34:11.541Z,68.11
2022-10-04T19:36:20.978Z,67.87
2022-10-04T19:38:52.476Z,67.75
2022-10-04T19:41:13.535Z,68.15
2022-10-04T19:43:23.677Z,68.13
2022-10-04T19:45:58.999Z,67.93
2022-10-04T19:48:08.562Z,67.91
2022-10-04T19:50:25.004Z,68.58
2022-10-04T19:52:38.742Z,68.39
2022-10-04T19:54:40.625Z,68.52
2022-10-04T19:56:48.322Z,68.55
2022-10-04T19:59:14.454Z,68.39
2022-10-04T20:01:23.323Z,68.51
2022-10-04T20:03:25.193Z,68.83
2022-10-04T20:05:27.065Z,68.83
2022-10-04T20:07:29.050Z,68.95
2022-10-04T20:09:44.089Z,68.67
2022-10-04T20:11:48.495Z,68.90
2022-10-04T20:14:07.301Z,69.02
2022-10-04T20:16:09.113Z,69.16
2022-10-04T20:18:29.766Z,69.17
2022-10-04T20:20:43.442Z,68.85
2022-10-04T20:22:54.086Z,69.12
2022-10-04T20:24:57.957Z,68.61
2022-10-04T20:27:17.498Z,68.73
2022-10-04T20:29:37.244Z,68.80
2022-10-04T20:31:42.445Z,69.04
2022-10-04T20:33:46.078Z,68.93
2022-10-04T20:36:08.399Z,68.86
2022-10-04T20:38:31.632Z,69.06
2022-10-04T20:40:40.241Z,69.09
2022-10-04T20:42:41.874Z,68.82
2022-10-04T20:45:20.738Z,69.08
2022-10-04T20:47:40.347Z,69.10
2022-10-04T20:49:45.043Z,68.88
2022-10-04T20:51:48.666Z,69.15
2022-10-04T20:53:51.165Z,69.05
2022-10-04T20:56:20.495Z,69.01
2022-10-04T20:58:35.379Z,69.18
2022-10-04T21:00:52.754Z,69.06
2022-10-04T21:03:14.575Z,68.75
2022-10-04T21:05:24.736Z,69.04
2022-10-04T21:07:27.290Z,69.03
2022-10-04T21:09:34.018Z,69.28
2022-10-04T21:11:46.737Z,69.19
2022-10-04T21:13:49.689Z,68.58
2022-10-04T21:16:00.826Z,68.92
2022-10-04T21:18:05.117Z,68.90
2022-10-04T21:20:15.704Z,68.91
2022-10-04T21:22:17.846Z,68.82
2022-10-04T21:24:29.455Z,68.90
2022-10-04T21:26:32.163Z,68.95
2022-10-04T21:28:35.451Z,68.92
2022-10-04T21:30:37.841Z,68.99
2022-10-04T21:32:40.179Z,69.26
2022-10-04T21:34:53.163Z,68.98
2022-10-04T21:36:56.273Z,68.86
2022-10-04T21:39:07.729Z,69.10
2022-10-04T21:41:10.136Z,68.84
2022-10-04T21:43:12.339Z,68.32
2022-10-04T21:45:14.948Z,68.05
2022-10-04T21:47:17.982Z,67.80
2022-10-04T21:49:20.206Z,67.62
2022-10-04T21:51:22.226Z,67.45
2022-10-04T21:53:24.337Z,67.53
2022-10-04T21:55:26.704Z,67.41
2022-10-04T21:57:33.212Z,67.64
2022-10-04T21:59:37.640Z,67.22
2022-10-04T22:01:39.843Z,67.29
2022-10-04T22:03:41.980Z,67.08
2022-10-04T22:05:44.837Z,67.00
2022-10-04T22:07:46.977Z,66.84
2022-10-04T22:09:49.145Z,67.11
2022-10-04T22:11:51.337Z,66.65
2022-10-04T22:13:53.212Z,66.97
2022-10-04T22:15:55.591Z,67.24
2022-10-04T22:17:57.961Z,67.34
2022-10-04T22:19:59.741Z,67.25
2022-10-04T22:22:01.454Z,67.93
2022-10-04T22:24:04.607Z,67.53
2022-10-04T22:26:27.764Z,67.36
2022-10-04T22:28:30.899Z,67.72
2022-10-04T22:30:32.613Z,67.77
2022-10-04T22:32:34.312Z,67.48
2022-10-04T22:34:36.094Z,67.33
2022-10-04T22:36:39.685Z,67.26
2022-10-04T22:39:12.154Z,67.51
2022-10-04T22:41:16.217Z,67.09
2022-10-04T22:43:18.219Z,67.38
2022-10-04T22:45:22.200Z,67.06
2022-10-04T22:47:24.950Z,67.37
2022-10-04T22:49:35.531Z,67.08
2022-10-04T22:51:39.499Z,67.01
2022-10-04T22:53:46.318Z,67.14
2022-10-04T22:55:49.195Z,67.55
2022-10-04T22:57:51.160Z,67.61
2022-10-04T22:59:53.181Z,68.02
2022-10-04T23:01:54.985Z,68.04
2022-10-04T23:03:58.493Z,67.75
2022-10-04T23:06:02.133Z,68.29
2022-10-04T23:08:04.228Z,68.52
2022-10-04T23:10:06.858Z,68.69
2022-10-04T23:12:09.831Z,68.49
2022-10-04T23:14:12.365Z,68.56
2022-10-04T23:16:18.659Z,68.65
2022-10-04T23:18:20.463Z,68.59
2022-10-04T23:20:22.853Z,68.54
2022-10-04T23:22:30.375Z,68.54
2022-10-04T23:24:32.104Z,68.05
2022-10-04T23:26:40.737Z,68.10
2022-10-04T23:28:42.540Z,68.16
2022-10-04T23:30:46.155Z,68.38
2022-10-04T23:32:51.190Z,68.23
2022-10-04T23:34:56.686Z,68.02
2022-10-04T23:36:59.204Z,68.24
2022-10-04T23:39:14.740Z,68.57
2022-10-04T23:41:19.289Z,67.64
2022-10-04T23:43:25.339Z,67.09
2022-10-04T23:45:29.597Z,66.92
2022-10-04T23:47:36.174Z,66.79
2022-10-04T23:49:38.268Z,66.39
2022-10-04T23:51:39.918Z,66.07
2022-10-04T23:53:43.742Z,65.97
2022-10-04T23:55:46.282Z,65.94
2022-10-04T23:57:48.800Z,65.93
2022-10-04T23:59:51.206Z,65.51
